Time;durP1;ratioP1;P1;durP2;ratioP2;P2;SDS_P1;SDS_P2;PMS_P1;PMS_P2;Temp;Humidity;BMP_temperature;BMP_pressure;BME280_temperature;BME280_humidity;BME280_pressure;Samples;Min_cycle;Max_cycle;Signal;HPM_P1;HPM_P2
2023/03/27 00:00:52;;;;;;;2.35;1.00;;;;;;;;;;5054793;28;20354;-86
2023/03/27 00:03:19;;;;;;;1.23;1.05;;;;;;;;;;5036399;28;20116;-85
2023/03/27 00:05:45;;;;;;;3.60;1.45;;;;;;;;;;5053191;28;20051;-86
2023/03/27 00:08:11;;;;;;;2.28;1.60;;;;;;;;;;5037374;28;20473;-84
2023/03/27 00:10:37;;;;;;;2.67;1.52;;;;;;;;;;5036874;28;20032;-85
2023/03/27 00:13:04;;;;;;;2.55;1.52;;;;;;;;;;5052936;28;20041;-88
2023/03/27 00:15:30;;;;;;;2.47;0.82;;;;;;;;;;5045640;28;20025;-88
2023/03/27 00:17:57;;;;;;;2.67;1.48;;;;;;;;;;5052643;28;20033;-87
2023/03/27 00:20:25;;;;;;;2.92;1.83;;;;;;;;;;5040606;28;20029;-86
2023/03/27 00:22:55;;;;;;;2.42;1.33;;;;;;;;;;5034496;28;20032;-83
2023/03/27 00:25:26;;;;;;;1.70;1.48;;;;;;;;;;5051952;28;20051;-88
2023/03/27 00:27:53;;;;;;;2.20;1.23;;;;;;;;;;5055233;28;20029;-86
2023/03/27 00:30:19;;;;;;;1.13;0.82;;;;;;;;;;5049235;28;20036;-87
2023/03/27 00:32:45;;;;;;;1.98;1.15;;;;;;;;;;5050978;28;20044;-87
2023/03/27 00:35:12;;;;;;;1.70;1.00;;;;;;;;;;5036692;28;20117;-88
2023/03/27 00:37:37;;;;;;;1.35;0.93;;;;;;;;;;5052453;28;20047;-86
2023/03/27 00:40:06;;;;;;;0.57;0.57;;;;;;;;;;5054627;28;20518;-88
2023/03/27 00:42:33;;;;;;;6.17;0.93;;;;;;;;;;5036315;28;20025;-87
2023/03/27 00:44:59;;;;;;;0.98;0.50;;;;;;;;;;5036296;28;20082;-85
2023/03/27 00:47:33;;;;;;;4.32;1.52;;;;;;;;;;5054124;28;20028;-86
2023/03/27 00:50:02;;;;;;;1.50;1.17;;;;;;;;;;5053807;28;20028;-85
2023/03/27 00:52:30;;;;;;;0.50;0.50;;;;;;;;;;5051293;28;20032;-87
2023/03/27 00:55:02;;;;;;;0.55;0.55;;;;;;;;;;5053442;28;20059;-85
2023/03/27 00:57:28;;;;;;;0.40;0.40;;;;;;;;;;5034942;28;20017;-86
2023/03/27 00:59:57;;;;;;;1.45;0.90;;;;;;;;;;5053357;28;20087;-85
2023/03/27 01:02:23;;;;;;;1.30;0.50;;;;;;;;;;5033075;28;20092;-83
2023/03/27 01:04:49;;;;;;;1.35;0.80;;;;;;;;;;5032783;28;20124;-87
2023/03/27 01:07:15;;;;;;;4.32;2.97;;;;;;;;;;5053691;28;20028;-85
2023/03/27 01:09:41;;;;;;;3.28;1.60;;;;;;;;;;5035602;28;20036;-84
2023/03/27 01:12:47;;;;;;;5.78;3.35;;;;;;;;;;5050032;28;20029;-85
2023/03/27 01:16:00;;;;;;;3.58;1.63;;;;;;;;;;5024408;28;20037;-86
2023/03/27 01:18:52;;;;;;;8.15;2.10;;;;;;;;;;4989449;28;20500;-86
2023/03/27 01:21:40;;;;;;;4.72;2.05;;;;;;;;;;4990276;28;20173;-88
2023/03/27 01:24:30;;;;;;;3.53;1.98;;;;;;;;;;5037373;28;20096;-86
2023/03/27 01:27:09;;;;;;;2.58;1.17;;;;;;;;;;5043162;28;20535;-85
2023/03/27 01:29:44;;;;;;;3.40;2.35;;;;;;;;;;5051557;28;20017;-85
2023/03/27 01:32:42;;;;;;;1.67;1.27;;;;;;;;;;5034248;28;20032;-85
2023/03/27 01:35:16;;;;;;;1.73;1.27;;;;;;;;;;5033710;28;20017;-84
2023/03/27 01:37:51;;;;;;;1.15;1.00;;;;;;;;;;5050811;28;20036;-87
2023/03/27 01:40:42;;;;;;;1.52;0.90;;;;;;;;;;5053067;28;20032;-87
2023/03/27 01:43:14;;;;;;;3.92;1.73;;;;;;;;;;5028743;28;20037;-85
2023/03/27 01:45:49;;;;;;;3.85;1.38;;;;;;;;;;5034831;28;20043;-85
2023/03/27 01:48:20;;;;;;;1.45;1.23;;;;;;;;;;5034948;28;20481;-85
2023/03/27 01:50:51;;;;;;;3.83;2.38;;;;;;;;;;5045315;28;20075;-87
2023/03/27 01:53:28;;;;;;;1.85;1.45;;;;;;;;;;5045938;28;20059;-85
2023/03/27 01:56:03;;;;;;;1.67;1.23;;;;;;;;;;5052718;28;20090;-87
2023/03/27 01:58:34;;;;;;;2.25;0.80;;;;;;;;;;5053708;28;20039;-82
2023/03/27 02:01:02;;;;;;;3.70;1.23;;;;;;;;;;5035997;28;20033;-86
2023/03/27 02:03:35;;;;;;;2.13;1.25;;;;;;;;;;5050260;28;20025;-86
2023/03/27 02:06:10;;;;;;;3.05;1.33;;;;;;;;;;5035871;28;20051;-85
2023/03/27 02:08:59;;;;;;;2.35;1.23;;;;;;;;;;5035761;28;20580;-84
2023/03/27 02:11:29;;;;;;;1.05;0.85;;;;;;;;;;5053046;28;20424;-86
2023/03/27 02:13:58;;;;;;;;;;;;;;;;;;5054451;28;20028;-85
2023/03/27 02:16:27;;;;;;;3.30;1.27;;;;;;;;;;5052956;28;19909;-84
2023/03/27 02:19:01;;;;;;;0.93;0.60;;;;;;;;;;5038711;28;20031;-83
2023/03/27 02:21:30;;;;;;;2.53;1.20;;;;;;;;;;5040041;28;20041;-85
2023/03/27 02:23:56;;;;;;;2.85;1.08;;;;;;;;;;5038859;28;20043;-85
2023/03/27 02:26:21;;;;;;;1.15;1.00;;;;;;;;;;5056693;28;20088;-86
2023/03/27 02:28:59;;;;;;;2.10;0.93;;;;;;;;;;5054531;28;20025;-85
2023/03/27 02:31:50;;;;;;;1.35;1.10;;;;;;;;;;5052525;28;20025;-84
2023/03/27 02:34:24;;;;;;;2.25;0.90;;;;;;;;;;5034243;28;20043;-85
2023/03/27 02:37:02;;;;;;;6.95;1.25;;;;;;;;;;5051749;28;20029;-84
2023/03/27 02:39:55;;;;;;;3.03;1.00;;;;;;;;;;5053533;28;20029;-85
2023/03/27 02:42:57;;;;;;;1.75;0.90;;;;;;;;;;5038498;28;20063;-85
2023/03/27 02:45:44;;;;;;;1.48;1.10;;;;;;;;;;5056328;28;20033;-85
2023/03/27 02:48:27;;;;;;;4.35;1.88;;;;;;;;;;5058018;28;20029;-85
2023/03/27 02:51:03;;;;;;;1.15;1.00;;;;;;;;;;5051197;28;20017;-84
2023/03/27 02:53:34;;;;;;;1.00;0.85;;;;;;;;;;5039469;28;20108;-83
2023/03/27 02:56:02;;;;;;;0.93;0.60;;;;;;;;;;5057547;28;20548;-84
2023/03/27 02:58:50;;;;;;;3.58;1.50;;;;;;;;;;5056209;28;20029;-85
2023/03/27 03:01:18;;;;;;;0.77;0.75;;;;;;;;;;5039546;28;20044;-85
2023/03/27 03:03:58;;;;;;;0.75;0.75;;;;;;;;;;5056705;28;20021;-84
2023/03/27 03:06:28;;;;;;;;;;;;;;;;;;5057318;28;20071;-84
2023/03/27 03:09:01;;;;;;;1.80;0.93;;;;;;;;;;5039592;28;19955;-85
2023/03/27 03:11:27;;;;;;;1.15;0.80;;;;;;;;;;5039922;28;20025;-84
2023/03/27 03:13:54;;;;;;;2.55;1.35;;;;;;;;;;5050428;28;20021;-84
2023/03/27 03:16:19;;;;;;;1.25;0.95;;;;;;;;;;5036431;28;20029;-84
2023/03/27 03:18:45;;;;;;;1.73;1.08;;;;;;;;;;5054481;28;20036;-86
2023/03/27 03:21:10;;;;;;;0.95;0.85;;;;;;;;;;5042644;28;20029;-86
2023/03/27 03:23:36;;;;;;;2.95;1.50;;;;;;;;;;5056783;28;20103;-86
2023/03/27 03:26:02;;;;;;;1.63;1.23;;;;;;;;;;5038245;28;20092;-84
2023/03/27 03:28:27;;;;;;;2.15;1.17;;;;;;;;;;5026432;28;20473;-84
2023/03/27 03:30:53;;;;;;;2.97;1.33;;;;;;;;;;5053438;28;20017;-83
2023/03/27 03:33:19;;;;;;;4.00;1.33;;;;;;;;;;5053963;28;20162;-85
2023/03/27 03:35:49;;;;;;;2.22;1.70;;;;;;;;;;5045795;28;20100;-86
2023/03/27 03:38:23;;;;;;;2.00;1.38;;;;;;;;;;5045098;28;20075;-84
2023/03/27 03:40:50;;;;;;;2.75;1.70;;;;;;;;;;5035498;28;20025;-88
2023/03/27 03:43:15;;;;;;;2.38;1.25;;;;;;;;;;5041687;28;20043;-87
2023/03/27 03:45:41;;;;;;;3.20;1.35;;;;;;;;;;5037999;28;20037;-88
2023/03/27 03:48:06;;;;;;;1.92;1.60;;;;;;;;;;5037568;28;20037;-86
2023/03/27 03:50:32;;;;;;;1.45;1.17;;;;;;;;;;5054541;28;20024;-86
2023/03/27 03:52:57;;;;;;;1.20;1.10;;;;;;;;;;5035339;28;20024;-88
2023/03/27 03:55:24;;;;;;;1.33;1.17;;;;;;;;;;5055215;28;20060;-84
2023/03/27 03:57:50;;;;;;;4.15;2.05;;;;;;;;;;5036621;28;20032;-84
2023/03/27 04:00:16;;;;;;;1.48;1.00;;;;;;;;;;5046750;28;20028;-85
2023/03/27 04:02:42;;;;;;;1.05;1.05;;;;;;;;;;5044863;28;20033;-84
2023/03/27 04:05:08;;;;;;;1.55;1.25;;;;;;;;;;5055122;28;20017;-85
2023/03/27 04:07:34;;;;;;;2.05;1.40;;;;;;;;;;5036906;28;20481;-86
2023/03/27 04:10:03;;;;;;;3.25;1.23;;;;;;;;;;5035944;28;20032;-86
2023/03/27 04:12:29;;;;;;;1.52;1.25;;;;;;;;;;5045849;28;20033;-85
2023/03/27 04:14:54;;;;;;;1.77;1.00;;;;;;;;;;5051944;28;20098;-84
2023/03/27 04:17:21;;;;;;;1.42;1.00;;;;;;;;;;5036324;28;20432;-84
2023/03/27 04:19:48;;;;;;;1.70;1.05;;;;;;;;;;5036983;28;20025;-81
2023/03/27 04:22:16;;;;;;;1.35;1.25;;;;;;;;;;5040632;28;20029;-81
2023/03/27 04:24:43;;;;;;;1.90;0.90;;;;;;;;;;5047657;28;20029;-83
2023/03/27 04:27:10;;;;;;;7.72;1.02;;;;;;;;;;5037786;28;20014;-83
2023/03/27 04:29:35;;;;;;;1.88;0.98;;;;;;;;;;5049292;28;20044;-82
2023/03/27 04:32:01;;;;;;;1.50;1.15;;;;;;;;;;5046303;28;20013;-83
2023/03/27 04:34:26;;;;;;;6.45;1.30;;;;;;;;;;5043193;28;20029;-82
2023/03/27 04:36:53;;;;;;;1.42;1.00;;;;;;;;;;5051901;28;20560;-85
2023/03/27 04:39:18;;;;;;;1.27;1.00;;;;;;;;;;5045148;28;20461;-85
2023/03/27 04:41:48;;;;;;;1.33;1.10;;;;;;;;;;5034412;28;20116;-87
2023/03/27 04:44:16;;;;;;;2.35;1.02;;;;;;;;;;5054029;28;20166;-86
2023/03/27 04:46:47;;;;;;;0.70;0.70;;;;;;;;;;5051276;28;20108;-84
2023/03/27 04:49:13;;;;;;;1.65;0.95;;;;;;;;;;5033986;28;20043;-84
2023/03/27 04:51:40;;;;;;;1.40;0.90;;;;;;;;;;5047963;28;20484;-83
2023/03/27 04:54:06;;;;;;;0.85;0.85;;;;;;;;;;5035098;28;20143;-83
2023/03/27 04:56:33;;;;;;;2.20;0.80;;;;;;;;;;5033968;28;20484;-84
2023/03/27 04:59:01;;;;;;;2.05;1.20;;;;;;;;;;5052952;28;20070;-85
2023/03/27 05:01:27;;;;;;;1.98;1.00;;;;;;;;;;5050431;28;20264;-83
2023/03/27 05:03:53;;;;;;;4.60;1.55;;;;;;;;;;5048869;28;20412;-82
2023/03/27 05:06:19;;;;;;;3.33;1.05;;;;;;;;;;5050255;28;20500;-83
2023/03/27 05:08:44;;;;;;;5.30;1.38;;;;;;;;;;5049682;28;20033;-81
2023/03/27 05:11:09;;;;;;;1.77;0.60;;;;;;;;;;5033307;28;20489;-83
2023/03/27 05:13:35;;;;;;;2.05;0.93;;;;;;;;;;5031970;28;20027;-81
2023/03/27 05:16:01;;;;;;;3.05;1.50;;;;;;;;;;5034436;28;20056;-81
2023/03/27 05:18:29;;;;;;;0.70;0.70;;;;;;;;;;5044686;28;20032;-82
2023/03/27 05:20:56;;;;;;;3.05;1.67;;;;;;;;;;5050184;28;20032;-81
2023/03/27 05:23:21;;;;;;;0.93;0.82;;;;;;;;;;5051036;28;20021;-83
2023/03/27 05:25:47;;;;;;;2.03;0.93;;;;;;;;;;5049242;28;20033;-81
2023/03/27 05:28:12;;;;;;;1.05;0.93;;;;;;;;;;5049705;28;20077;-83
2023/03/27 05:30:37;;;;;;;7.32;1.70;;;;;;;;;;5049924;28;20025;-81
2023/03/27 05:33:03;;;;;;;11.70;2.15;;;;;;;;;;5050079;28;20069;-81
2023/03/27 05:35:28;;;;;;;0.75;0.73;;;;;;;;;;5050288;28;20502;-82
2023/03/27 05:37:54;;;;;;;6.68;1.30;;;;;;;;;;5038296;28;20026;-81
2023/03/27 05:40:24;;;;;;;0.60;0.50;;;;;;;;;;5050561;28;20044;-82
2023/03/27 05:42:50;;;;;;;1.17;0.77;;;;;;;;;;5033574;28;20025;-81
2023/03/27 05:45:16;;;;;;;7.78;1.42;;;;;;;;;;5050089;28;20494;-81
2023/03/27 05:47:48;;;;;;;1.23;0.90;;;;;;;;;;5031984;28;20057;-82
2023/03/27 05:50:14;;;;;;;1.27;0.60;;;;;;;;;;5029298;28;20064;-82
2023/03/27 05:52:40;;;;;;;0.73;0.63;;;;;;;;;;5025978;28;20037;-82
2023/03/27 05:55:07;;;;;;;5.13;1.10;;;;;;;;;;5044992;28;20056;-82
2023/03/27 05:57:36;;;;;;;0.68;0.50;;;;;;;;;;5034787;28;20070;-81
2023/03/27 06:00:06;;;;;;;0.55;0.55;;;;;;;;;;5054407;28;20055;-83
2023/03/27 06:02:33;;;;;;;0.60;0.60;;;;;;;;;;5036027;28;20025;-86
2023/03/27 06:05:00;;;;;;;0.63;0.60;;;;;;;;;;5039158;28;20473;-82
2023/03/27 06:07:26;;;;;;;0.40;0.40;;;;;;;;;;5047242;28;20459;-82
2023/03/27 06:09:53;;;;;;;2.45;0.60;;;;;;;;;;5051461;28;20029;-82
2023/03/27 06:12:18;;;;;;;5.47;1.13;;;;;;;;;;5053629;28;20087;-82
2023/03/27 06:14:45;;;;;;;1.15;0.70;;;;;;;;;;5049130;28;20029;-83
2023/03/27 06:17:10;;;;;;;0.85;0.68;;;;;;;;;;5046574;28;20037;-81
2023/03/27 06:19:36;;;;;;;3.00;0.52;;;;;;;;;;5053486;28;20020;-83
2023/03/27 06:22:02;;;;;;;0.65;0.65;;;;;;;;;;5048467;28;20424;-80
2023/03/27 06:24:27;;;;;;;2.00;1.17;;;;;;;;;;5026135;28;20044;-81
2023/03/27 06:26:52;;;;;;;1.70;0.90;;;;;;;;;;5052483;28;20079;-81
2023/03/27 06:29:18;;;;;;;1.38;0.85;;;;;;;;;;5034286;28;20052;-82
2023/03/27 06:31:43;;;;;;;1.58;0.80;;;;;;;;;;5051327;28;20021;-81
2023/03/27 06:34:09;;;;;;;0.45;0.45;;;;;;;;;;5053203;28;20044;-84
2023/03/27 06:36:35;;;;;;;1.50;1.13;;;;;;;;;;5035442;28;20496;-81
2023/03/27 06:39:03;;;;;;;1.00;0.75;;;;;;;;;;5053442;28;20104;-82
2023/03/27 06:41:28;;;;;;;5.47;1.02;;;;;;;;;;5052370;28;20108;-82
2023/03/27 06:43:54;;;;;;;3.28;1.00;;;;;;;;;;5053072;28;20426;-81
2023/03/27 06:46:20;;;;;;;8.93;1.80;;;;;;;;;;5053158;28;20024;-81
2023/03/27 06:48:46;;;;;;;5.88;2.05;;;;;;;;;;5051670;28;20370;-86
2023/03/27 06:51:11;;;;;;;3.50;1.70;;;;;;;;;;5052978;28;20021;-81
2023/03/27 06:53:37;;;;;;;9.13;2.42;;;;;;;;;;5048357;28;20032;-81
2023/03/27 06:56:02;;;;;;;4.90;2.17;;;;;;;;;;5048427;28;20105;-85
2023/03/27 06:58:28;;;;;;;6.05;2.05;;;;;;;;;;5051042;28;20576;-80
2023/03/27 07:00:54;;;;;;;4.30;2.55;;;;;;;;;;5035414;28;20025;-83
2023/03/27 07:03:21;;;;;;;4.45;1.80;;;;;;;;;;5050874;28;20392;-80
2023/03/27 07:05:47;;;;;;;3.05;1.75;;;;;;;;;;5052566;28;20033;-81
2023/03/27 07:08:15;;;;;;;3.92;2.08;;;;;;;;;;5052044;28;20037;-81
2023/03/27 07:10:40;;;;;;;4.22;2.60;;;;;;;;;;5050104;28;20017;-83
2023/03/27 07:13:06;;;;;;;7.65;3.38;;;;;;;;;;5031250;28;20040;-82
2023/03/27 07:15:32;;;;;;;2.38;1.75;;;;;;;;;;5049006;28;20035;-81
2023/03/27 07:18:04;;;;;;;5.43;2.83;;;;;;;;;;5033602;28;20040;-83
2023/03/27 07:20:31;;;;;;;3.60;2.42;;;;;;;;;;5051708;28;20037;-82
2023/03/27 07:22:57;;;;;;;2.35;1.77;;;;;;;;;;5050618;28;21192;-82
2023/03/27 07:25:31;;;;;;;5.30;3.03;;;;;;;;;;5051199;28;20074;-82
2023/03/27 07:27:59;;;;;;;3.28;1.92;;;;;;;;;;5051624;28;20381;-83
2023/03/27 07:30:26;;;;;;;2.50;1.30;;;;;;;;;;5046715;28;20056;-80
2023/03/27 07:32:52;;;;;;;2.58;1.35;;;;;;;;;;5048089;28;20091;-83
2023/03/27 07:35:18;;;;;;;3.90;1.67;;;;;;;;;;5052278;28;20036;-83
2023/03/27 07:37:44;;;;;;;5.07;2.05;;;;;;;;;;5046061;28;20037;-81
2023/03/27 07:40:14;;;;;;;1.42;1.23;;;;;;;;;;5046245;28;20033;-79
2023/03/27 07:42:47;;;;;;;2.95;2.40;;;;;;;;;;5033401;28;20052;-82
2023/03/27 07:45:12;;;;;;;9.07;2.72;;;;;;;;;;5045956;28;20067;-80
2023/03/27 07:47:42;;;;;;;2.40;1.40;;;;;;;;;;5043993;28;20056;-81
2023/03/27 07:50:10;;;;;;;2.38;1.67;;;;;;;;;;5044077;28;20029;-81
2023/03/27 07:52:39;;;;;;;3.95;2.22;;;;;;;;;;5047647;28;20029;-82
2023/03/27 07:55:06;;;;;;;17.55;9.57;;;;;;;;;;5051099;28;20385;-81
2023/03/27 07:57:32;;;;;;;13.82;8.45;;;;;;;;;;5046060;28;20055;-79
2023/03/27 07:59:58;;;;;;;4.25;1.92;;;;;;;;;;5051296;28;20025;-79
2023/03/27 08:02:26;;;;;;;3.72;1.95;;;;;;;;;;5033948;28;20020;-79
2023/03/27 08:04:52;;;;;;;3.50;1.98;;;;;;;;;;5051564;28;20078;-81
2023/03/27 08:07:20;;;;;;;2.08;1.80;;;;;;;;;;5051497;28;20031;-81
2023/03/27 08:09:45;;;;;;;12.18;1.98;;;;;;;;;;5049279;28;20029;-80
2023/03/27 08:12:11;;;;;;;9.77;3.25;;;;;;;;;;5046237;28;20035;-81
2023/03/27 08:14:36;;;;;;;1.30;1.02;;;;;;;;;;5050312;28;20039;-81
2023/03/27 08:17:02;;;;;;;5.97;1.80;;;;;;;;;;5050419;28;20045;-80
2023/03/27 08:19:27;;;;;;;1.73;1.17;;;;;;;;;;5028205;28;20036;-81
2023/03/27 08:21:52;;;;;;;1.73;1.10;;;;;;;;;;5048615;28;20124;-80
2023/03/27 08:24:18;;;;;;;3.33;1.52;;;;;;;;;;5033624;28;20025;-81
2023/03/27 08:26:44;;;;;;;1.42;1.08;;;;;;;;;;5035976;28;20078;-80
2023/03/27 08:29:09;;;;;;;2.05;1.55;;;;;;;;;;5048863;28;20086;-81
2023/03/27 08:31:35;;;;;;;3.05;1.38;;;;;;;;;;5051251;28;20021;-80
2023/03/27 08:34:01;;;;;;;6.15;0.85;;;;;;;;;;5051077;28;20124;-82
2023/03/27 08:36:26;;;;;;;0.57;0.50;;;;;;;;;;5052695;28;20039;-81
2023/03/27 08:38:54;;;;;;;0.80;0.60;;;;;;;;;;5049536;28;20457;-82
2023/03/27 08:41:41;;;;;;;0.80;0.68;;;;;;;;;;5035526;28;20021;-85
2023/03/27 08:44:12;;;;;;;1.35;0.85;;;;;;;;;;5033657;28;20107;-81
2023/03/27 08:46:46;;;;;;;1.40;0.95;;;;;;;;;;5044220;28;20025;-80
2023/03/27 08:49:26;;;;;;;0.63;0.57;;;;;;;;;;5041824;28;20175;-82
2023/03/27 08:52:00;;;;;;;0.75;0.60;;;;;;;;;;5052381;28;20384;-82
2023/03/27 08:54:31;;;;;;;0.93;0.80;;;;;;;;;;5051050;28;20492;-81
2023/03/27 08:56:57;;;;;;;2.80;1.13;;;;;;;;;;5048586;28;20527;-86
2023/03/27 08:59:28;;;;;;;1.27;0.90;;;;;;;;;;5033898;28;20029;-82
2023/03/27 09:02:25;;;;;;;2.53;0.93;;;;;;;;;;5049420;28;20060;-80
2023/03/27 09:05:05;;;;;;;1.42;0.70;;;;;;;;;;5041389;28;20772;-84
2023/03/27 09:07:42;;;;;;;;;;;;;;;;;;5046036;28;20037;-81
2023/03/27 09:10:26;;;;;;;1.52;0.80;;;;;;;;;;5046222;28;20277;-82
2023/03/27 09:13:07;;;;;;;1.63;0.90;;;;;;;;;;5031769;28;20445;-83
2023/03/27 09:15:42;;;;;;;1.33;0.70;;;;;;;;;;5032369;28;20029;-82
2023/03/27 09:18:26;;;;;;;1.27;1.10;;;;;;;;;;5051799;28;20028;-82
2023/03/27 09:20:57;;;;;;;1.00;0.82;;;;;;;;;;5049098;28;20524;-81
2023/03/27 09:23:35;;;;;;;0.95;0.80;;;;;;;;;;5051092;28;20104;-84
2023/03/27 09:26:09;;;;;;;0.68;0.55;;;;;;;;;;5048376;28;20123;-84
2023/03/27 09:28:38;;;;;;;1.35;1.00;;;;;;;;;;5050833;28;20106;-83
2023/03/27 09:31:23;;;;;;;1.00;0.88;;;;;;;;;;5033208;28;20048;-81
2023/03/27 09:33:49;;;;;;;0.80;0.60;;;;;;;;;;5049213;28;20059;-83
2023/03/27 09:36:16;;;;;;;3.20;1.15;;;;;;;;;;5051656;28;20025;-88
2023/03/27 09:38:49;;;;;;;1.80;1.33;;;;;;;;;;5053443;28;20033;-89
2023/03/27 09:41:21;;;;;;;2.08;1.00;;;;;;;;;;5049163;28;20061;-83
2023/03/27 09:43:59;;;;;;;1.95;1.10;;;;;;;;;;5051696;28;20031;-86
2023/03/27 09:46:27;;;;;;;2.80;1.48;;;;;;;;;;5034965;28;20050;-86
2023/03/27 09:48:59;;;;;;;1.75;0.80;;;;;;;;;;5029542;28;20032;-84
2023/03/27 09:51:46;;;;;;;1.60;1.00;;;;;;;;;;5045581;28;20485;-82
2023/03/27 09:54:15;;;;;;;1.65;1.08;;;;;;;;;;5046893;28;20061;-83
2023/03/27 09:56:45;;;;;;;2.05;1.10;;;;;;;;;;5054722;28;20469;-86
2023/03/27 09:59:29;;;;;;;0.80;0.70;;;;;;;;;;5049498;28;20033;-84
2023/03/27 10:02:00;;;;;;;1.15;0.80;;;;;;;;;;5040451;28;20029;-83
2023/03/27 10:04:28;;;;;;;0.85;0.60;;;;;;;;;;5048798;28;20104;-82
2023/03/27 10:07:09;;;;;;;2.22;1.38;;;;;;;;;;5048700;28;20032;-84
2023/03/27 10:09:39;;;;;;;2.05;1.20;;;;;;;;;;5034941;28;20026;-83
2023/03/27 10:12:06;;;;;;;1.13;0.85;;;;;;;;;;5042625;28;20546;-82
2023/03/27 10:14:34;;;;;;;1.35;0.88;;;;;;;;;;5040175;28;20154;-86
2023/03/27 10:17:02;;;;;;;3.05;1.13;;;;;;;;;;5040061;28;20055;-83
2023/03/27 10:19:37;;;;;;;1.42;1.30;;;;;;;;;;5045408;28;20108;-83
2023/03/27 10:22:24;;;;;;;2.50;1.73;;;;;;;;;;5042329;28;20041;-85
2023/03/27 10:24:52;;;;;;;3.15;1.52;;;;;;;;;;5032678;28;20029;-83
2023/03/27 10:27:23;;;;;;;1.35;1.25;;;;;;;;;;5050029;28;20033;-83
2023/03/27 10:29:49;;;;;;;2.58;1.02;;;;;;;;;;5050148;28;20444;-82
2023/03/27 10:32:14;;;;;;;13.98;1.60;;;;;;;;;;5030002;28;20021;-84
2023/03/27 10:34:54;;;;;;;2.97;1.50;;;;;;;;;;5032654;28;20024;-86
2023/03/27 10:37:19;;;;;;;;;;;;;;;;;;5033059;28;20035;-81
2023/03/27 10:39:46;;;;;;;2.05;1.15;;;;;;;;;;5053572;28;19913;-81
2023/03/27 10:42:13;;;;;;;2.15;1.20;;;;;;;;;;5035310;28;20025;-84
2023/03/27 10:44:40;;;;;;;1.05;0.60;;;;;;;;;;5047724;28;20029;-83
2023/03/27 10:47:18;;;;;;;0.75;0.70;;;;;;;;;;5036348;28;20508;-82
2023/03/27 10:49:50;;;;;;;1.80;1.10;;;;;;;;;;5054129;28;20519;-83
2023/03/27 10:52:35;;;;;;;1.75;1.13;;;;;;;;;;5053312;28;20104;-84
2023/03/27 10:55:20;;;;;;;3.15;0.85;;;;;;;;;;5053926;28;20029;-83
2023/03/27 10:57:52;;;;;;;1.58;0.80;;;;;;;;;;5043284;28;20025;-82
2023/03/27 11:00:33;;;;;;;0.70;0.70;;;;;;;;;;5015445;28;20033;-78
2023/03/27 11:03:17;;;;;;;1.05;0.77;;;;;;;;;;5042462;28;20037;-81
2023/03/27 11:05:46;;;;;;;1.17;0.82;;;;;;;;;;5032050;28;20041;-81
2023/03/27 11:08:28;;;;;;;1.63;0.80;;;;;;;;;;5050352;28;20025;-82
2023/03/27 11:11:00;;;;;;;2.65;1.20;;;;;;;;;;5034396;28;20473;-80
2023/03/27 11:13:30;;;;;;;2.22;1.05;;;;;;;;;;5050846;28;20025;-83
2023/03/27 11:16:14;;;;;;;2.45;0.85;;;;;;;;;;5049941;28;20443;-81
2023/03/27 11:18:50;;;;;;;1.45;1.17;;;;;;;;;;5045291;28;20020;-81
2023/03/27 11:21:24;;;;;;;1.85;0.88;;;;;;;;;;5044490;28;20068;-79
2023/03/27 11:23:57;;;;;;;2.75;0.93;;;;;;;;;;5051315;28;20024;-81
2023/03/27 11:26:32;;;;;;;1.33;1.02;;;;;;;;;;5047386;28;20057;-78
2023/03/27 11:29:57;;;;;;;1.95;1.38;;;;;;;;;;5031218;28;20036;-80
2023/03/27 11:32:39;;;;;;;2.60;1.38;;;;;;;;;;4962187;28;20055;-82
2023/03/27 11:35:16;;;;;;;2.67;1.08;;;;;;;;;;4971596;28;20030;-82
2023/03/27 11:37:50;;;;;;;2.60;1.10;;;;;;;;;;5019298;28;20072;-80
2023/03/27 11:40:22;;;;;;;0.50;0.50;;;;;;;;;;5032742;28;20036;-81
2023/03/27 11:42:48;;;;;;;2.42;1.25;;;;;;;;;;5027258;28;20071;-82
2023/03/27 11:45:17;;;;;;;2.15;0.93;;;;;;;;;;5012349;28;20695;-80
2023/03/27 11:48:03;;;;;;;0.90;0.70;;;;;;;;;;5032999;28;20493;-81
2023/03/27 11:50:40;;;;;;;2.75;1.38;;;;;;;;;;5008005;28;20116;-83
2023/03/27 11:53:26;;;;;;;1.75;0.93;;;;;;;;;;5030231;28;20065;-82
2023/03/27 11:56:03;;;;;;;1.95;1.17;;;;;;;;;;5028270;28;20025;-82
2023/03/27 11:58:33;;;;;;;2.33;1.42;;;;;;;;;;5029660;28;20075;-83
2023/03/27 12:01:06;;;;;;;3.10;1.90;;;;;;;;;;5030066;28;20136;-82
2023/03/27 12:03:40;;;;;;;3.70;1.45;;;;;;;;;;5010417;28;20049;-81
2023/03/27 12:06:15;;;;;;;3.90;1.75;;;;;;;;;;5031826;28;20025;-80
2023/03/27 12:09:10;;;;;;;2.65;1.75;;;;;;;;;;5027246;28;20021;-81
2023/03/27 12:11:42;;;;;;;1.88;0.63;;;;;;;;;;5026134;28;20401;-81
2023/03/27 12:14:27;;;;;;;0.98;0.30;;;;;;;;;;5032129;28;20037;-79
2023/03/27 12:17:11;;;;;;;0.20;0.20;;;;;;;;;;5031509;28;20040;-78
2023/03/27 12:19:56;;;;;;;0.13;0.13;;;;;;;;;;5029692;28;20099;-78
2023/03/27 12:22:37;;;;;;;0.10;0.10;;;;;;;;;;5029790;28;20116;-78
2023/03/27 12:25:02;;;;;;;0.10;0.10;;;;;;;;;;5030698;28;20052;-80
2023/03/27 12:27:43;;;;;;;0.20;0.20;;;;;;;;;;5032223;28;20454;-77
2023/03/27 12:30:12;;;;;;;0.13;0.13;;;;;;;;;;5031668;28;20144;-79
2023/03/27 12:32:46;;;;;;;3.03;0.80;;;;;;;;;;5015687;28;20044;-81
2023/03/27 12:35:23;;;;;;;0.08;0.08;;;;;;;;;;5049082;28;20029;-80
2023/03/27 12:37:58;;;;;;;0.10;0.10;;;;;;;;;;5051427;28;20027;-81
2023/03/27 12:40:36;;;;;;;0.10;0.10;;;;;;;;;;5050256;28;20043;-80
2023/03/27 12:43:17;;;;;;;0.10;0.10;;;;;;;;;;5047823;28;20060;-81
2023/03/27 12:46:06;;;;;;;0.10;0.10;;;;;;;;;;5048654;28;20071;-83
2023/03/27 12:48:32;;;;;;;0.20;0.20;;;;;;;;;;5048901;28;20020;-80
2023/03/27 12:50:57;;;;;;;0.45;0.20;;;;;;;;;;5051656;28;20483;-82
2023/03/27 12:53:29;;;;;;;0.35;0.13;;;;;;;;;;5050741;28;20032;-81
2023/03/27 12:56:12;;;;;;;0.60;0.52;;;;;;;;;;5050609;28;20036;-80
2023/03/27 12:58:39;;;;;;;0.40;0.13;;;;;;;;;;5058996;28;20384;-79
2023/03/27 13:01:09;;;;;;;0.10;0.10;;;;;;;;;;5050272;28;20021;-80
2023/03/27 13:03:46;;;;;;;0.20;0.20;;;;;;;;;;5051580;28;20036;-79
2023/03/27 13:06:46;;;;;;;0.45;0.45;;;;;;;;;;5050881;28;20033;-80
2023/03/27 13:09:51;;;;;;;5.10;1.88;;;;;;;;;;5045230;28;20516;-79
2023/03/27 13:12:29;;;;;;;0.82;0.73;;;;;;;;;;5037918;28;20488;-81
2023/03/27 13:15:15;;;;;;;0.50;0.35;;;;;;;;;;5061605;28;20055;-79
2023/03/27 13:17:49;;;;;;;1.05;1.05;;;;;;;;;;5048721;28;20033;-80
2023/03/27 13:20:26;;;;;;;1.13;1.05;;;;;;;;;;5047491;28;20492;-81
2023/03/27 13:23:07;;;;;;;0.38;0.32;;;;;;;;;;5064591;28;20469;-81
2023/03/27 13:25:54;;;;;;;0.50;0.50;;;;;;;;;;5059447;28;20362;-79
2023/03/27 13:28:45;;;;;;;0.30;0.30;;;;;;;;;;5033029;28;20024;-82
2023/03/27 13:31:32;;;;;;;0.63;0.35;;;;;;;;;;5047589;28;20052;-79
2023/03/27 13:34:12;;;;;;;1.40;0.93;;;;;;;;;;5042165;28;20072;-79
2023/03/27 13:36:46;;;;;;;1.83;0.75;;;;;;;;;;5042302;28;20033;-80
2023/03/27 13:39:23;;;;;;;0.52;0.40;;;;;;;;;;5046522;28;20056;-80
2023/03/27 13:42:05;;;;;;;2.38;1.02;;;;;;;;;;5041620;28;20033;-81
2023/03/27 13:44:47;;;;;;;0.88;0.38;;;;;;;;;;5046482;28;20032;-79
2023/03/27 13:47:31;;;;;;;0.10;0.10;;;;;;;;;;5046565;28;20037;-79
2023/03/27 13:50:06;;;;;;;0.88;0.10;;;;;;;;;;5043511;28;20029;-80
2023/03/27 13:52:31;;;;;;;0.10;0.10;;;;;;;;;;5030306;28;20029;-79
2023/03/27 13:55:22;;;;;;;0.13;0.13;;;;;;;;;;5046450;28;20504;-80
2023/03/27 13:58:09;;;;;;;0.10;0.10;;;;;;;;;;5049382;28;20043;-82
2023/03/27 14:00:46;;;;;;;0.20;0.20;;;;;;;;;;5036691;28;20429;-80
2023/03/27 14:03:24;;;;;;;0.52;0.50;;;;;;;;;;5031425;28;20543;-79
2023/03/27 14:06:31;;;;;;;2.25;0.88;;;;;;;;;;5049921;28;20036;-79
2023/03/27 14:09:25;;;;;;;1.65;0.98;;;;;;;;;;5030893;28;20503;-80
2023/03/27 14:12:06;;;;;;;1.75;1.05;;;;;;;;;;5032828;28;20158;-80
2023/03/27 14:14:51;;;;;;;0.85;0.80;;;;;;;;;;5051716;28;20028;-79
2023/03/27 14:17:29;;;;;;;2.38;0.90;;;;;;;;;;5053575;28;20029;-79
2023/03/27 14:20:24;;;;;;;1.10;0.93;;;;;;;;;;5051467;28;20408;-79
2023/03/27 14:22:55;;;;;;;2.70;1.13;;;;;;;;;;5049427;28;20021;-80
2023/03/27 14:25:29;;;;;;;3.13;1.80;;;;;;;;;;5052983;28;20495;-81
2023/03/27 14:27:55;;;;;;;2.63;1.73;;;;;;;;;;5053856;28;20033;-81
2023/03/27 14:30:22;;;;;;;3.42;1.90;;;;;;;;;;5052538;28;20096;-80
2023/03/27 14:32:48;;;;;;;1.80;1.23;;;;;;;;;;5048125;28;20042;-80
2023/03/27 14:35:37;;;;;;;3.67;1.85;;;;;;;;;;5037545;28;20025;-79
2023/03/27 14:38:20;;;;;;;2.15;1.90;;;;;;;;;;5012394;28;20026;-80
2023/03/27 14:40:46;;;;;;;2.25;1.90;;;;;;;;;;5019641;28;20021;-80
2023/03/27 14:43:15;;;;;;;4.18;1.88;;;;;;;;;;5042080;28;20037;-80
2023/03/27 14:45:41;;;;;;;3.95;2.05;;;;;;;;;;5025152;28;20022;-80
2023/03/27 14:48:20;;;;;;;3.33;1.63;;;;;;;;;;5015879;28;20103;-82
2023/03/27 14:50:52;;;;;;;3.33;1.73;;;;;;;;;;5038546;28;20481;-81
2023/03/27 14:53:25;;;;;;;2.78;1.67;;;;;;;;;;5030368;28;20033;-82
2023/03/27 14:55:53;;;;;;;3.63;2.45;;;;;;;;;;5032623;28;20025;-82
2023/03/27 14:58:19;;;;;;;3.90;2.03;;;;;;;;;;5037944;28;20029;-82
2023/03/27 15:00:51;;;;;;;4.20;2.10;;;;;;;;;;5030650;28;20029;-82
2023/03/27 15:03:20;;;;;;;9.63;2.38;;;;;;;;;;5038525;28;20037;-81
2023/03/27 15:06:03;;;;;;;4.57;1.95;;;;;;;;;;5036769;28;20041;-81
2023/03/27 15:08:35;;;;;;;7.65;3.15;;;;;;;;;;5041724;28;20047;-80
2023/03/27 15:11:09;;;;;;;3.08;2.28;;;;;;;;;;5033340;28;20079;-81
2023/03/27 15:13:35;;;;;;;3.88;2.58;;;;;;;;;;5037311;28;20108;-83